Pagina principale
METAR-TAF:

METAR-TAF

Aeroporti :

Jaffrey, New Hampshire, Stati Uniti

latitudine: 42-48-21N, longitudine: 072-00-02W, altezza: 317 m

Osservazione

Il bollettino è stato emesso 23 minuti fa, alle 07:52 UTC
Vento calmo
Temperature 8°C
Umidità 100%
Pressione 1017 hPa
Visibilità: 16.1 km
Cielo sereno

METAR: KAFN 240752Z AUTO 00000KT 10SM CLR 08/08 A3003 RMK AO2 SLP174 T00830083

Ora: 04:15 (08:15 UTC)


TAF: mancante

Osservazioni e previsioni meteorologiche di più di 4000 aeroporti (messaggi METAR e TAF).

Le stazioni disponibili sono rappresentate dai dischi gialli e rossi sulla carta.

Puntare il mouse per vedere il nome della stazione.

Clicca sopra per visualizzare le osservazioni e previsioni meteorologiche.

Per cambiare la mappa : fare clic sui pulsanti verdi con una croce nera per ingrandire, il pulsante verde con un trattino per diminuire, o sulla freccia verde per le mappe adiacenti.


METAR-TAF: